Airports Bulgaria Varna Airport

Varna Airport (LBWN / VAR)

Facts about Varna Airport

Name Varna Airport
City Varna
Country Bulgaria
ICAO code LBWN
IATA code VAR
Elevation 70.1040 meters (230 feet)

Weather

METAR

Metar data retrieved Saturday, 20 July 2024 at 00:55 UTC (1 minutes ago)

LBWN 200030Z AUTO 32004KT 260V350 9999 NCD 24/19 Q1011 NOSIG

Live traffic

Navigraph Charts (account required)